sensor_id;sensor_type;location;lat;lon;timestamp;P1;durP1;ratioP1;P2;durP2;ratioP2
55633;SDS011;41504;53.162;6.788;2022-12-08T18:13:56;11.98;;;6.57;;
55633;SDS011;41504;53.162;6.788;2022-12-08T18:16:22;12.43;;;7.20;;
55633;SDS011;41504;53.162;6.788;2022-12-08T18:18:49;15.02;;;8.60;;
55633;SDS011;41504;53.162;6.788;2022-12-08T18:21:15;9.50;;;6.30;;
55633;SDS011;41504;53.162;6.788;2022-12-08T18:23:42;8.38;;;5.40;;
55633;SDS011;41504;53.162;6.788;2022-12-08T18:26:12;11.75;;;6.13;;
55633;SDS011;41504;53.162;6.788;2022-12-08T18:28:39;8.90;;;5.57;;
55633;SDS011;41504;53.162;6.788;2022-12-08T18:31:10;12.13;;;5.70;;
55633;SDS011;41504;53.162;6.788;2022-12-08T18:33:38;11.80;;;6.57;;
55633;SDS011;41504;53.162;6.788;2022-12-08T18:36:06;14.88;;;6.95;;
55633;SDS011;41504;53.162;6.788;2022-12-08T18:38:33;9.98;;;6.03;;
55633;SDS011;41504;53.162;6.788;2022-12-08T18:41:03;10.32;;;6.55;;
55633;SDS011;41504;53.162;6.788;2022-12-08T18:43:36;18.27;;;13.45;;
55633;SDS011;41504;53.162;6.788;2022-12-08T18:46:03;19.75;;;13.15;;
55633;SDS011;41504;53.162;6.788;2022-12-08T18:48:34;17.05;;;10.98;;
55633;SDS011;41504;53.162;6.788;2022-12-08T18:51:08;12.10;;;7.72;;
55633;SDS011;41504;53.162;6.788;2022-12-08T18:53:35;14.63;;;8.50;;
55633;SDS011;41504;53.162;6.788;2022-12-08T18:56:04;26.90;;;12.07;;
55633;SDS011;41504;53.162;6.788;2022-12-08T18:58:33;19.70;;;9.70;;
55633;SDS011;41504;53.162;6.788;2022-12-08T19:00:59;19.52;;;9.60;;
55633;SDS011;41504;53.162;6.788;2022-12-08T19:03:24;17.13;;;9.10;;
55633;SDS011;41504;53.162;6.788;2022-12-08T19:06:00;18.40;;;9.90;;
55633;SDS011;41504;53.162;6.788;2022-12-08T19:08:29;18.02;;;10.68;;
55633;SDS011;41504;53.162;6.788;2022-12-08T19:10:55;22.10;;;11.65;;
55633;SDS011;41504;53.162;6.788;2022-12-08T19:13:20;17.85;;;10.68;;
55633;SDS011;41504;53.162;6.788;2022-12-08T19:15:46;18.70;;;10.05;;
55633;SDS011;41504;53.162;6.788;2022-12-08T19:18:12;16.13;;;9.70;;
55633;SDS011;41504;53.162;6.788;2022-12-08T19:20:38;16.25;;;9.85;;
55633;SDS011;41504;53.162;6.788;2022-12-08T19:23:03;16.63;;;9.80;;
55633;SDS011;41504;53.162;6.788;2022-12-08T19:25:29;17.23;;;10.55;;
55633;SDS011;41504;53.162;6.788;2022-12-08T19:27:55;18.27;;;11.90;;
55633;SDS011;41504;53.162;6.788;2022-12-08T19:30:21;15.07;;;10.88;;
55633;SDS011;41504;53.162;6.788;2022-12-08T19:32:46;14.15;;;8.70;;
55633;SDS011;41504;53.162;6.788;2022-12-08T19:35:13;16.88;;;8.70;;
55633;SDS011;41504;53.162;6.788;2022-12-08T19:37:39;14.73;;;9.00;;
55633;SDS011;41504;53.162;6.788;2022-12-08T19:40:09;14.20;;;8.27;;
55633;SDS011;41504;53.162;6.788;2022-12-08T19:42:56;14.57;;;8.55;;
55633;SDS011;41504;53.162;6.788;2022-12-08T19:45:41;19.75;;;9.65;;
55633;SDS011;41504;53.162;6.788;2022-12-08T19:48:07;17.17;;;9.25;;
55633;SDS011;41504;53.162;6.788;2022-12-08T19:50:33;27.40;;;13.65;;
55633;SDS011;41504;53.162;6.788;2022-12-08T19:53:09;22.02;;;10.30;;
55633;SDS011;41504;53.162;6.788;2022-12-08T19:55:36;19.75;;;12.20;;
55633;SDS011;41504;53.162;6.788;2022-12-08T19:58:02;24.98;;;12.52;;
55633;SDS011;41504;53.162;6.788;2022-12-08T20:00:29;31.13;;;17.23;;
55633;SDS011;41504;53.162;6.788;2022-12-08T20:02:56;27.08;;;16.23;;
55633;SDS011;41504;53.162;6.788;2022-12-08T20:05:22;35.17;;;18.02;;
55633;SDS011;41504;53.162;6.788;2022-12-08T20:07:48;36.42;;;19.48;;
55633;SDS011;41504;53.162;6.788;2022-12-08T20:10:18;37.00;;;20.70;;
55633;SDS011;41504;53.162;6.788;2022-12-08T20:12:49;27.15;;;16.48;;
55633;SDS011;41504;53.162;6.788;2022-12-08T20:15:15;27.30;;;15.65;;
55633;SDS011;41504;53.162;6.788;2022-12-08T20:17:41;37.25;;;21.20;;
55633;SDS011;41504;53.162;6.788;2022-12-08T20:20:08;38.03;;;22.15;;
55633;SDS011;41504;53.162;6.788;2022-12-08T20:22:36;28.90;;;17.55;;
55633;SDS011;41504;53.162;6.788;2022-12-08T20:25:02;21.88;;;13.95;;
55633;SDS011;41504;53.162;6.788;2022-12-08T20:27:28;16.73;;;9.98;;
55633;SDS011;41504;53.162;6.788;2022-12-08T20:30:00;17.88;;;10.35;;
55633;SDS011;41504;53.162;6.788;2022-12-08T20:32:26;15.93;;;10.00;;
55633;SDS011;41504;53.162;6.788;2022-12-08T20:34:51;15.20;;;9.27;;
55633;SDS011;41504;53.162;6.788;2022-12-08T20:37:17;16.63;;;9.15;;
55633;SDS011;41504;53.162;6.788;2022-12-08T20:39:43;13.38;;;8.75;;
55633;SDS011;41504;53.162;6.788;2022-12-08T20:42:11;13.88;;;8.52;;
55633;SDS011;41504;53.162;6.788;2022-12-08T20:44:37;12.63;;;8.13;;
55633;SDS011;41504;53.162;6.788;2022-12-08T20:47:07;14.55;;;8.63;;
55633;SDS011;41504;53.162;6.788;2022-12-08T20:49:33;16.65;;;9.85;;
55633;SDS011;41504;53.162;6.788;2022-12-08T20:51:58;14.75;;;9.15;;
55633;SDS011;41504;53.162;6.788;2022-12-08T20:54:27;19.10;;;9.57;;
55633;SDS011;41504;53.162;6.788;2022-12-08T20:56:53;15.70;;;10.10;;
55633;SDS011;41504;53.162;6.788;2022-12-08T20:59:19;15.48;;;10.05;;
55633;SDS011;41504;53.162;6.788;2022-12-08T21:01:44;15.07;;;10.05;;
55633;SDS011;41504;53.162;6.788;2022-12-08T21:04:11;16.25;;;10.00;;
55633;SDS011;41504;53.162;6.788;2022-12-08T21:06:36;18.35;;;10.63;;
55633;SDS011;41504;53.162;6.788;2022-12-08T21:09:02;22.63;;;11.07;;
55633;SDS011;41504;53.162;6.788;2022-12-08T21:11:28;19.38;;;11.70;;
55633;SDS011;41504;53.162;6.788;2022-12-08T21:13:54;18.38;;;10.52;;
55633;SDS011;41504;53.162;6.788;2022-12-08T21:16:20;17.55;;;10.68;;
55633;SDS011;41504;53.162;6.788;2022-12-08T21:18:46;18.40;;;10.55;;
55633;SDS011;41504;53.162;6.788;2022-12-08T21:21:13;17.20;;;10.88;;
55633;SDS011;41504;53.162;6.788;2022-12-08T21:23:39;20.35;;;12.05;;
55633;SDS011;41504;53.162;6.788;2022-12-08T21:26:12;18.83;;;11.40;;
55633;SDS011;41504;53.162;6.788;2022-12-08T21:28:39;21.13;;;12.73;;
55633;SDS011;41504;53.162;6.788;2022-12-08T21:31:06;19.27;;;12.50;;
55633;SDS011;41504;53.162;6.788;2022-12-08T21:33:32;19.00;;;11.95;;
55633;SDS011;41504;53.162;6.788;2022-12-08T21:36:12;19.58;;;12.10;;
55633;SDS011;41504;53.162;6.788;2022-12-08T21:38:39;19.08;;;12.10;;
55633;SDS011;41504;53.162;6.788;2022-12-08T21:41:07;19.63;;;12.13;;
55633;SDS011;41504;53.162;6.788;2022-12-08T21:43:34;20.30;;;12.00;;
55633;SDS011;41504;53.162;6.788;2022-12-08T21:46:03;17.52;;;12.02;;
55633;SDS011;41504;53.162;6.788;2022-12-08T21:48:32;17.40;;;11.45;;
55633;SDS011;41504;53.162;6.788;2022-12-08T21:51:02;17.65;;;11.70;;
55633;SDS011;41504;53.162;6.788;2022-12-08T21:53:29;19.08;;;11.25;;
55633;SDS011;41504;53.162;6.788;2022-12-08T21:55:57;18.90;;;11.48;;
55633;SDS011;41504;53.162;6.788;2022-12-08T21:58:23;16.95;;;10.90;;
55633;SDS011;41504;53.162;6.788;2022-12-08T22:00:50;19.58;;;11.05;;
55633;SDS011;41504;53.162;6.788;2022-12-08T22:03:18;16.83;;;10.52;;
55633;SDS011;41504;53.162;6.788;2022-12-08T22:05:44;18.00;;;10.00;;
55633;SDS011;41504;53.162;6.788;2022-12-08T22:08:09;18.40;;;10.95;;
55633;SDS011;41504;53.162;6.788;2022-12-08T22:10:38;18.63;;;11.35;;
55633;SDS011;41504;53.162;6.788;2022-12-08T22:13:04;16.77;;;10.73;;
55633;SDS011;41504;53.162;6.788;2022-12-08T22:15:30;16.73;;;10.13;;
55633;SDS011;41504;53.162;6.788;2022-12-08T22:17:56;18.70;;;10.68;;
55633;SDS011;41504;53.162;6.788;2022-12-08T22:20:22;20.27;;;11.80;;
55633;SDS011;41504;53.162;6.788;2022-12-08T22:22:48;20.45;;;11.70;;
55633;SDS011;41504;53.162;6.788;2022-12-08T22:25:13;17.17;;;10.52;;
55633;SDS011;41504;53.162;6.788;2022-12-08T22:27:39;17.92;;;10.48;;
55633;SDS011;41504;53.162;6.788;2022-12-08T22:30:05;19.77;;;11.60;;
55633;SDS011;41504;53.162;6.788;2022-12-08T22:32:32;17.95;;;10.40;;
55633;SDS011;41504;53.162;6.788;2022-12-08T22:34:57;17.15;;;10.52;;
55633;SDS011;41504;53.162;6.788;2022-12-08T22:37:23;16.60;;;10.07;;
55633;SDS011;41504;53.162;6.788;2022-12-08T22:39:49;17.67;;;10.52;;
55633;SDS011;41504;53.162;6.788;2022-12-08T22:42:14;18.73;;;11.25;;
55633;SDS011;41504;53.162;6.788;2022-12-08T22:44:40;17.77;;;10.35;;
55633;SDS011;41504;53.162;6.788;2022-12-08T22:47:06;22.45;;;10.73;;
55633;SDS011;41504;53.162;6.788;2022-12-08T22:49:31;19.75;;;10.98;;
55633;SDS011;41504;53.162;6.788;2022-12-08T22:51:57;19.05;;;10.63;;
55633;SDS011;41504;53.162;6.788;2022-12-08T22:54:23;19.55;;;11.43;;
55633;SDS011;41504;53.162;6.788;2022-12-08T22:56:49;19.60;;;11.50;;
55633;SDS011;41504;53.162;6.788;2022-12-08T22:59:14;17.40;;;10.70;;
55633;SDS011;41504;53.162;6.788;2022-12-08T23:01:40;18.38;;;10.65;;
55633;SDS011;41504;53.162;6.788;2022-12-08T23:04:09;18.55;;;11.32;;
55633;SDS011;41504;53.162;6.788;2022-12-08T23:06:38;17.25;;;10.35;;
55633;SDS011;41504;53.162;6.788;2022-12-08T23:09:04;20.02;;;11.90;;
55633;SDS011;41504;53.162;6.788;2022-12-08T23:11:33;19.88;;;10.88;;
55633;SDS011;41504;53.162;6.788;2022-12-08T23:14:00;21.15;;;10.70;;
55633;SDS011;41504;53.162;6.788;2022-12-08T23:16:25;19.20;;;10.85;;
55633;SDS011;41504;53.162;6.788;2022-12-08T23:18:51;17.73;;;10.65;;
55633;SDS011;41504;53.162;6.788;2022-12-08T23:21:17;22.48;;;12.30;;
55633;SDS011;41504;53.162;6.788;2022-12-08T23:23:47;21.45;;;12.88;;
55633;SDS011;41504;53.162;6.788;2022-12-08T23:26:23;20.70;;;11.93;;
55633;SDS011;41504;53.162;6.788;2022-12-08T23:28:50;21.42;;;11.68;;
55633;SDS011;41504;53.162;6.788;2022-12-08T23:31:17;20.75;;;12.48;;
55633;SDS011;41504;53.162;6.788;2022-12-08T23:33:43;18.17;;;10.95;;
55633;SDS011;41504;53.162;6.788;2022-12-08T23:36:09;21.73;;;12.02;;
55633;SDS011;41504;53.162;6.788;2022-12-08T23:38:36;20.52;;;11.57;;
55633;SDS011;41504;53.162;6.788;2022-12-08T23:41:02;21.23;;;11.82;;
55633;SDS011;41504;53.162;6.788;2022-12-08T23:43:30;22.10;;;12.00;;
55633;SDS011;41504;53.162;6.788;2022-12-08T23:45:55;20.40;;;11.70;;
55633;SDS011;41504;53.162;6.788;2022-12-08T23:48:21;19.40;;;11.55;;
55633;SDS011;41504;53.162;6.788;2022-12-08T23:50:47;21.70;;;12.40;;
55633;SDS011;41504;53.162;6.788;2022-12-08T23:53:13;18.20;;;10.93;;
55633;SDS011;41504;53.162;6.788;2022-12-08T23:55:39;21.88;;;12.25;;
55633;SDS011;41504;53.162;6.788;2022-12-08T23:58:05;19.13;;;11.85;;
